Time;durP1;ratioP1;P1;durP2;ratioP2;P2;SDS_P1;SDS_P2;PMS_P1;PMS_P2;Temp;Humidity;BMP_temperature;BMP_pressure;BME280_temperature;BME280_humidity;BME280_pressure;Samples;Min_cycle;Max_cycle;Signal;HPM_P1;HPM_P2
2023/05/08 00:01:45;;;;;;;10.90;10.20;;;;;;;;;;5282950;28;20296;-68
2023/05/08 00:04:19;;;;;;;11.13;10.38;;;;;;;;;;5282695;28;20342;-67
2023/05/08 00:06:51;;;;;;;11.40;10.50;;;;;;;;;;5282696;28;20033;-67
2023/05/08 00:09:22;;;;;;;10.80;10.02;;;;;;;;;;5282552;28;20025;-67
2023/05/08 00:11:54;;;;;;;12.17;11.07;;;;;;;;;;5282448;28;20020;-67
2023/05/08 00:14:25;;;;;;;11.13;10.33;;;;;;;;;;5283119;28;20828;-67
2023/05/08 00:16:56;;;;;;;11.50;10.65;;;;;;;;;;5281806;28;21124;-67
2023/05/08 00:19:27;;;;;;;11.40;10.70;;;;;;;;;;5283038;28;20024;-67
2023/05/08 00:21:58;;;;;;;10.27;9.68;;;;;;;;;;5282284;28;20267;-67
2023/05/08 00:24:29;;;;;;;11.45;10.30;;;;;;;;;;5281800;28;20078;-67
2023/05/08 00:27:01;;;;;;;12.63;11.73;;;;;;;;;;5282717;28;20471;-70
2023/05/08 00:29:32;;;;;;;11.73;10.93;;;;;;;;;;5282661;28;20266;-67
2023/05/08 00:32:03;;;;;;;11.75;10.95;;;;;;;;;;5281646;28;20278;-67
2023/05/08 00:34:35;;;;;;;11.82;10.93;;;;;;;;;;5282274;28;20063;-67
2023/05/08 00:37:06;;;;;;;12.13;11.32;;;;;;;;;;5281589;28;20511;-67
2023/05/08 00:39:37;;;;;;;11.17;10.37;;;;;;;;;;5282319;28;20032;-67
2023/05/08 00:42:08;;;;;;;11.85;10.85;;;;;;;;;;5282569;28;20258;-67
2023/05/08 00:44:40;;;;;;;11.95;11.05;;;;;;;;;;5281147;28;20270;-67
2023/05/08 00:47:11;;;;;;;12.30;11.40;;;;;;;;;;5282481;28;20471;-67
2023/05/08 00:49:42;;;;;;;12.23;11.32;;;;;;;;;;5281951;28;20379;-67
2023/05/08 00:52:14;;;;;;;12.30;11.25;;;;;;;;;;5281745;28;20205;-67
2023/05/08 00:54:45;;;;;;;11.70;10.98;;;;;;;;;;5281780;28;20024;-67
2023/05/08 00:57:17;;;;;;;12.50;11.60;;;;;;;;;;5282107;28;20049;-67
2023/05/08 00:59:48;;;;;;;13.25;12.15;;;;;;;;;;5280812;28;20025;-67
2023/05/08 01:02:20;;;;;;;11.52;10.75;;;;;;;;;;5282454;28;20024;-68
2023/05/08 01:04:52;;;;;;;12.27;11.38;;;;;;;;;;5281741;28;20051;-67
2023/05/08 01:07:23;;;;;;;12.30;11.45;;;;;;;;;;5281564;28;20021;-67
2023/05/08 01:09:54;;;;;;;12.65;11.75;;;;;;;;;;5281488;28;20024;-67
2023/05/08 01:12:28;;;;;;;12.70;11.57;;;;;;;;;;5281537;28;20092;-67
2023/05/08 01:15:21;;;;;;;11.23;10.32;;;;;;;;;;5281603;28;20270;-67
2023/05/08 01:17:52;;;;;;;11.60;10.80;;;;;;;;;;5281458;28;20078;-67
2023/05/08 01:20:23;;;;;;;11.98;10.88;;;;;;;;;;5281245;28;20456;-67
2023/05/08 01:23:21;;;;;;;12.30;11.40;;;;;;;;;;5281292;28;20111;-68
2023/05/08 01:26:10;;;;;;;11.77;10.77;;;;;;;;;;5281564;28;20378;-67
2023/05/08 01:28:53;;;;;;;11.20;10.32;;;;;;;;;;5280645;28;20379;-68
2023/05/08 01:31:41;;;;;;;11.27;10.48;;;;;;;;;;5282155;28;20021;-67
2023/05/08 01:34:19;;;;;;;11.15;10.23;;;;;;;;;;5281056;28;20025;-67
2023/05/08 01:37:01;;;;;;;11.38;10.43;;;;;;;;;;5281264;28;20028;-67
2023/05/08 01:39:41;;;;;;;11.63;10.82;;;;;;;;;;5281477;28;20085;-67
2023/05/08 01:42:21;;;;;;;12.43;11.25;;;;;;;;;;5280998;28;20017;-67
2023/05/08 01:44:54;;;;;;;11.63;10.82;;;;;;;;;;5281343;28;20017;-67
2023/05/08 01:47:27;;;;;;;13.32;11.38;;;;;;;;;;5281065;28;20052;-67
2023/05/08 01:50:14;;;;;;;12.45;11.30;;;;;;;;;;5284571;28;20021;-67
2023/05/08 01:52:49;;;;;;;10.82;10.13;;;;;;;;;;5285280;28;20032;-67
2023/05/08 01:55:24;;;;;;;12.02;11.02;;;;;;;;;;5285460;28;20468;-67
2023/05/08 01:57:57;;;;;;;12.57;11.57;;;;;;;;;;5284999;28;20040;-67
2023/05/08 02:00:28;;;;;;;13.18;12.27;;;;;;;;;;5286020;28;20371;-67
2023/05/08 02:03:00;;;;;;;14.13;12.82;;;;;;;;;;5284497;28;20099;-67
2023/05/08 02:05:32;;;;;;;13.10;12.05;;;;;;;;;;5285477;28;20024;-67
2023/05/08 02:08:04;;;;;;;13.15;12.05;;;;;;;;;;5285310;28;20348;-68
2023/05/08 02:10:36;;;;;;;13.77;12.68;;;;;;;;;;5284649;28;20112;-68
2023/05/08 02:13:09;;;;;;;13.68;12.65;;;;;;;;;;5285543;28;20453;-68
2023/05/08 02:15:40;;;;;;;13.05;12.15;;;;;;;;;;5284322;28;20467;-68
2023/05/08 02:18:13;;;;;;;14.02;12.93;;;;;;;;;;5285516;28;20025;-68
2023/05/08 02:20:44;;;;;;;13.85;12.75;;;;;;;;;;5284682;28;20017;-67
2023/05/08 02:23:19;;;;;;;13.38;12.38;;;;;;;;;;5284881;28;20024;-68
2023/05/08 02:25:51;;;;;;;12.45;11.57;;;;;;;;;;5284833;28;20012;-68
2023/05/08 02:28:23;;;;;;;13.43;12.43;;;;;;;;;;5285296;28;20029;-68
2023/05/08 02:30:55;;;;;;;13.90;12.73;;;;;;;;;;5283858;28;20075;-68
2023/05/08 02:33:27;;;;;;;14.35;13.18;;;;;;;;;;5285077;28;20055;-68
2023/05/08 02:35:58;;;;;;;15.32;13.98;;;;;;;;;;5284410;28;20021;-68
2023/05/08 02:38:30;;;;;;;15.93;14.63;;;;;;;;;;5283991;28;20028;-68
2023/05/08 02:41:04;;;;;;;14.93;13.85;;;;;;;;;;5284745;28;20348;-68
2023/05/08 02:43:35;;;;;;;15.18;13.98;;;;;;;;;;5284304;28;20021;-68
2023/05/08 02:46:06;;;;;;;15.02;13.75;;;;;;;;;;5284284;28;20042;-67
2023/05/08 02:48:41;;;;;;;15.68;14.38;;;;;;;;;;5284506;28;20024;-67
2023/05/08 02:51:17;;;;;;;14.57;13.32;;;;;;;;;;5284233;28;20338;-67
2023/05/08 02:54:03;;;;;;;13.75;12.65;;;;;;;;;;5284140;28;20379;-68
2023/05/08 02:56:48;;;;;;;14.20;13.10;;;;;;;;;;5284229;28;20059;-68
2023/05/08 02:59:34;;;;;;;14.52;13.38;;;;;;;;;;5283892;28;20017;-68
2023/05/08 03:02:09;;;;;;;14.75;13.65;;;;;;;;;;5284316;28;20020;-67
2023/05/08 03:04:44;;;;;;;16.10;14.82;;;;;;;;;;5283663;28;20039;-68
2023/05/08 03:07:15;;;;;;;14.45;13.25;;;;;;;;;;5284410;28;20027;-68
2023/05/08 03:09:49;;;;;;;14.30;13.20;;;;;;;;;;5284108;28;20463;-67
2023/05/08 03:12:22;;;;;;;15.18;13.68;;;;;;;;;;5283548;28;20051;-67
2023/05/08 03:15:02;;;;;;;14.02;13.02;;;;;;;;;;5283675;28;20017;-67
2023/05/08 03:17:35;;;;;;;14.80;13.65;;;;;;;;;;5284177;28;20021;-68
2023/05/08 03:20:08;;;;;;;16.08;14.80;;;;;;;;;;5283297;28;20031;-67
2023/05/08 03:22:41;;;;;;;16.50;15.20;;;;;;;;;;5283570;28;20024;-68
2023/05/08 03:25:14;;;;;;;15.52;14.32;;;;;;;;;;5284258;28;20025;-67
2023/05/08 03:27:47;;;;;;;15.82;14.60;;;;;;;;;;5282691;28;20022;-68
2023/05/08 03:30:19;;;;;;;15.43;14.25;;;;;;;;;;5284209;28;20486;-67
2023/05/08 03:32:51;;;;;;;14.93;13.82;;;;;;;;;;5282606;28;20025;-68
2023/05/08 03:35:22;;;;;;;14.70;13.60;;;;;;;;;;5283930;28;20070;-68
2023/05/08 03:37:53;;;;;;;14.48;13.38;;;;;;;;;;5283114;28;20104;-67
2023/05/08 03:40:26;;;;;;;14.73;13.52;;;;;;;;;;5282994;28;20036;-68
2023/05/08 03:42:59;;;;;;;14.43;13.43;;;;;;;;;;5283271;28;20100;-68
2023/05/08 03:45:33;;;;;;;14.13;12.82;;;;;;;;;;5283514;28;20017;-68
2023/05/08 03:48:05;;;;;;;15.70;14.50;;;;;;;;;;5282447;28;20028;-67
2023/05/08 03:50:37;;;;;;;15.93;14.65;;;;;;;;;;5283180;28;20020;-67
2023/05/08 03:53:08;;;;;;;15.60;14.40;;;;;;;;;;5283399;28;20506;-68
2023/05/08 03:55:40;;;;;;;15.68;14.57;;;;;;;;;;5281849;28;20013;-68
2023/05/08 03:58:25;;;;;;;14.25;13.20;;;;;;;;;;5283263;28;20099;-68
2023/05/08 04:01:14;;;;;;;16.52;15.27;;;;;;;;;;5282248;28;20103;-67
2023/05/08 04:03:52;;;;;;;16.30;14.80;;;;;;;;;;5282600;28;20024;-68
2023/05/08 04:06:35;;;;;;;16.38;15.05;;;;;;;;;;5283221;28;20352;-68
2023/05/08 04:09:15;;;;;;;15.48;14.30;;;;;;;;;;5281903;28;20032;-67
2023/05/08 04:11:53;;;;;;;15.13;14.02;;;;;;;;;;5281871;28;20008;-68
2023/05/08 04:14:26;;;;;;;14.30;13.20;;;;;;;;;;5283211;28;20117;-68
2023/05/08 04:17:00;;;;;;;15.07;13.82;;;;;;;;;;5281572;28;20026;-68
2023/05/08 04:19:33;;;;;;;15.02;13.82;;;;;;;;;;5282566;28;20498;-68
2023/05/08 04:22:06;;;;;;;14.98;13.93;;;;;;;;;;5282209;28;20035;-68
2023/05/08 04:24:42;;;;;;;15.02;13.93;;;;;;;;;;5282419;28;20028;-68
2023/05/08 04:27:13;;;;;;;14.95;13.65;;;;;;;;;;5282878;28;20029;-70
2023/05/08 04:29:45;;;;;;;14.90;13.73;;;;;;;;;;5281416;28;20074;-68
2023/05/08 04:32:16;;;;;;;15.73;14.45;;;;;;;;;;5282573;28;20706;-68
2023/05/08 04:34:48;;;;;;;18.70;14.40;;;;;;;;;;5282184;28;20032;-68
2023/05/08 04:37:27;;;;;;;16.25;14.77;;;;;;;;;;5281855;28;20099;-68
2023/05/08 04:39:58;;;;;;;16.17;14.88;;;;;;;;;;5281909;28;20029;-68
2023/05/08 04:42:30;;;;;;;16.48;15.05;;;;;;;;;;5282165;28;20421;-68
2023/05/08 04:45:01;;;;;;;15.65;14.45;;;;;;;;;;5281626;28;20539;-68
2023/05/08 04:47:32;;;;;;;16.33;15.10;;;;;;;;;;5282238;28;20040;-68
2023/05/08 04:50:04;;;;;;;17.73;16.13;;;;;;;;;;5281982;28;20017;-67
2023/05/08 04:52:35;;;;;;;16.63;15.32;;;;;;;;;;5281164;28;20282;-68
2023/05/08 04:55:06;;;;;;;17.40;16.08;;;;;;;;;;5281835;28;20025;-68
2023/05/08 04:57:37;;;;;;;17.58;16.27;;;;;;;;;;5280770;28;20076;-68
2023/05/08 05:00:09;;;;;;;16.70;15.40;;;;;;;;;;5282170;28;20025;-68
2023/05/08 05:02:40;;;;;;;17.98;16.48;;;;;;;;;;5281638;28;20251;-68
2023/05/08 05:05:11;;;;;;;17.38;15.95;;;;;;;;;;5281337;28;20023;-68
2023/05/08 05:07:43;;;;;;;17.83;16.43;;;;;;;;;;5281381;28;20387;-67
2023/05/08 05:10:14;;;;;;;18.50;16.70;;;;;;;;;;5282131;28;20345;-68
2023/05/08 05:12:46;;;;;;;18.05;16.55;;;;;;;;;;5280636;28;20274;-68
2023/05/08 05:15:17;;;;;;;17.08;15.48;;;;;;;;;;5282011;28;20048;-68
2023/05/08 05:17:48;;;;;;;16.90;15.50;;;;;;;;;;5281285;28;20310;-68
2023/05/08 05:20:19;;;;;;;20.15;18.40;;;;;;;;;;5281147;28;20029;-68
2023/05/08 05:22:51;;;;;;;19.33;17.53;;;;;;;;;;5280662;28;20372;-68
2023/05/08 05:25:22;;;;;;;18.27;16.77;;;;;;;;;;5281292;28;20327;-68
2023/05/08 05:27:53;;;;;;;19.25;17.65;;;;;;;;;;5281174;28;20273;-68
2023/05/08 05:30:24;;;;;;;18.07;16.67;;;;;;;;;;5281729;28;20020;-68
2023/05/08 05:32:55;;;;;;;18.10;16.57;;;;;;;;;;5280480;28;20359;-68
2023/05/08 05:35:26;;;;;;;16.03;14.83;;;;;;;;;;5281642;28;20262;-67
2023/05/08 05:37:58;;;;;;;16.08;14.93;;;;;;;;;;5281104;28;20746;-67
2023/05/08 05:40:29;;;;;;;14.48;13.48;;;;;;;;;;5281021;28;20027;-68
2023/05/08 05:43:00;;;;;;;15.70;14.55;;;;;;;;;;5281156;28;20316;-68
2023/05/08 05:45:31;;;;;;;15.50;14.30;;;;;;;;;;5281422;28;20083;-68
2023/05/08 05:48:03;;;;;;;17.80;16.20;;;;;;;;;;5280639;28;20132;-68
2023/05/08 05:50:34;;;;;;;16.75;15.45;;;;;;;;;;5281121;28;20017;-68
2023/05/08 05:53:05;;;;;;;18.17;16.67;;;;;;;;;;5280989;28;20028;-68
2023/05/08 05:55:37;;;;;;;19.08;17.58;;;;;;;;;;5280589;28;20668;-68
2023/05/08 05:58:08;;;;;;;20.30;18.52;;;;;;;;;;5281120;28;20094;-68
2023/05/08 06:00:39;;;;;;;20.17;18.58;;;;;;;;;;5280256;28;20418;-68
2023/05/08 06:03:10;;;;;;;20.52;18.83;;;;;;;;;;5281612;28;20021;-68
2023/05/08 06:05:41;;;;;;;22.60;20.60;;;;;;;;;;5280776;28;20259;-69
2023/05/08 06:08:14;;;;;;;22.45;20.45;;;;;;;;;;5280966;28;20017;-68
2023/05/08 06:10:45;;;;;;;21.80;19.90;;;;;;;;;;5280985;28;20130;-67
2023/05/08 06:13:17;;;;;;;22.60;20.70;;;;;;;;;;5281447;28;20032;-68
2023/05/08 06:15:49;;;;;;;23.88;21.88;;;;;;;;;;5280061;28;20287;-68
2023/05/08 06:18:20;;;;;;;24.60;22.50;;;;;;;;;;5281234;28;20020;-68
2023/05/08 06:20:58;;;;;;;25.92;23.73;;;;;;;;;;5280655;28;20013;-68
2023/05/08 06:23:29;;;;;;;27.95;25.40;;;;;;;;;;5280201;28;20020;-68
2023/05/08 06:26:01;;;;;;;26.20;23.92;;;;;;;;;;5280935;28;20039;-68
2023/05/08 06:28:32;;;;;;;27.35;24.63;;;;;;;;;;5280933;28;20467;-68
2023/05/08 06:31:03;;;;;;;27.47;25.13;;;;;;;;;;5280513;28;20013;-68
2023/05/08 06:33:34;;;;;;;28.60;25.92;;;;;;;;;;5280972;28;20291;-68
2023/05/08 06:36:05;;;;;;;29.52;26.92;;;;;;;;;;5283297;28;20107;-68
2023/05/08 06:38:37;;;;;;;30.13;27.48;;;;;;;;;;5284457;28;20025;-68
2023/05/08 06:41:08;;;;;;;29.77;27.17;;;;;;;;;;5283864;28;20059;-68
2023/05/08 06:43:39;;;;;;;30.55;27.90;;;;;;;;;;5283383;28;20471;-68
2023/05/08 06:46:10;;;;;;;30.10;27.30;;;;;;;;;;5284714;28;20660;-68
2023/05/08 06:48:41;;;;;;;31.15;28.25;;;;;;;;;;5284147;28;20447;-68
2023/05/08 06:51:13;;;;;;;30.33;27.67;;;;;;;;;;5283561;28;20020;-68
2023/05/08 06:53:44;;;;;;;30.83;28.07;;;;;;;;;;5283843;28;20451;-68
2023/05/08 06:56:15;;;;;;;30.20;27.40;;;;;;;;;;5284347;28;20287;-67
2023/05/08 06:58:46;;;;;;;30.47;27.67;;;;;;;;;;5283284;28;20667;-67
2023/05/08 07:01:17;;;;;;;30.10;27.52;;;;;;;;;;5284604;28;20274;-67
2023/05/08 07:03:48;;;;;;;29.90;27.25;;;;;;;;;;5283548;28;20055;-67
2023/05/08 07:06:20;;;;;;;31.42;28.42;;;;;;;;;;5283750;28;20491;-67
2023/05/08 07:08:51;;;;;;;33.37;30.33;;;;;;;;;;5283775;28;20293;-67
2023/05/08 07:11:22;;;;;;;32.05;29.02;;;;;;;;;;5283783;28;20317;-67
2023/05/08 07:13:53;;;;;;;34.35;31.25;;;;;;;;;;5283636;28;20294;-67
2023/05/08 07:16:24;;;;;;;36.17;32.60;;;;;;;;;;5284180;28;20032;-68
2023/05/08 07:18:56;;;;;;;36.75;33.28;;;;;;;;;;5282794;28;20267;-68
2023/05/08 07:21:28;;;;;;;36.53;33.13;;;;;;;;;;5283950;28;20422;-67
2023/05/08 07:23:59;;;;;;;37.17;33.63;;;;;;;;;;5283280;28;20258;-68
2023/05/08 07:26:30;;;;;;;36.00;32.60;;;;;;;;;;5283016;28;20541;-67
2023/05/08 07:29:02;;;;;;;36.13;32.90;;;;;;;;;;5283639;28;20278;-67
2023/05/08 07:31:33;;;;;;;35.42;32.15;;;;;;;;;;5283600;28;20107;-68
2023/05/08 07:34:06;;;;;;;35.87;32.57;;;;;;;;;;5282895;28;20408;-68
2023/05/08 07:36:37;;;;;;;35.08;31.98;;;;;;;;;;5283447;28;20741;-68
2023/05/08 07:39:09;;;;;;;33.88;30.90;;;;;;;;;;5282828;28;20065;-67
2023/05/08 07:41:40;;;;;;;32.92;29.85;;;;;;;;;;5283573;28;20016;-67
2023/05/08 07:44:11;;;;;;;33.80;30.75;;;;;;;;;;5283875;28;20021;-67
2023/05/08 07:46:43;;;;;;;33.33;30.23;;;;;;;;;;5281476;28;20016;-68
2023/05/08 07:49:14;;;;;;;30.40;27.60;;;;;;;;;;5279413;28;20365;-68
2023/05/08 07:51:45;;;;;;;32.30;29.30;;;;;;;;;;5282797;28;20016;-68
2023/05/08 07:54:16;;;;;;;29.45;26.85;;;;;;;;;;5282459;28;20298;-68
2023/05/08 07:56:47;;;;;;;28.90;26.35;;;;;;;;;;5282568;28;20044;-68
2023/05/08 07:59:19;;;;;;;30.13;27.43;;;;;;;;;;5283154;28;20510;-68
2023/05/08 08:01:50;;;;;;;29.27;26.57;;;;;;;;;;5280842;28;20745;-68
2023/05/08 08:04:21;;;;;;;28.75;26.13;;;;;;;;;;5282648;28;20289;-68
2023/05/08 08:06:52;;;;;;;29.53;26.93;;;;;;;;;;5282487;28;20051;-68
2023/05/08 08:09:23;;;;;;;28.70;26.23;;;;;;;;;;5282265;28;20769;-68
2023/05/08 08:11:54;;;;;;;27.67;25.27;;;;;;;;;;5282585;28;20641;-68
2023/05/08 08:14:26;;;;;;;26.63;24.40;;;;;;;;;;5282220;28;20283;-68
2023/05/08 08:16:57;;;;;;;25.92;23.83;;;;;;;;;;5278933;28;20277;-68
2023/05/08 08:19:28;;;;;;;28.37;25.77;;;;;;;;;;5282543;28;20463;-68
2023/05/08 08:21:59;;;;;;;25.70;23.60;;;;;;;;;;5278091;28;20286;-67
2023/05/08 08:24:31;;;;;;;26.92;24.73;;;;;;;;;;5282111;28;20262;-68
2023/05/08 08:27:03;;;;;;;25.98;23.75;;;;;;;;;;5282056;28;20027;-68
2023/05/08 08:29:34;;;;;;;24.65;22.55;;;;;;;;;;5281576;28;20086;-67
2023/05/08 08:32:05;;;;;;;26.60;24.03;;;;;;;;;;5281465;28;20059;-68
2023/05/08 08:34:36;;;;;;;24.88;22.67;;;;;;;;;;5281599;28;20277;-69
2023/05/08 08:37:08;;;;;;;23.75;21.65;;;;;;;;;;5281563;28;20016;-68
2023/05/08 08:39:39;;;;;;;22.02;20.17;;;;;;;;;;5281904;28;20025;-67
2023/05/08 08:42:11;;;;;;;22.87;20.67;;;;;;;;;;5282029;28;20046;-68
2023/05/08 08:44:42;;;;;;;24.75;22.58;;;;;;;;;;5281367;28;20270;-68
2023/05/08 08:47:15;;;;;;;20.48;18.83;;;;;;;;;;5282237;28;20021;-68
2023/05/08 08:49:47;;;;;;;19.73;18.10;;;;;;;;;;5282420;28;20032;-67
2023/05/08 08:52:30;;;;;;;18.52;16.98;;;;;;;;;;5285018;28;20058;-68
2023/05/08 08:55:03;;;;;;;17.92;16.42;;;;;;;;;;5282133;28;20021;-68
2023/05/08 08:57:38;;;;;;;20.35;18.75;;;;;;;;;;5280854;28;20405;-68
2023/05/08 09:00:10;;;;;;;20.67;18.95;;;;;;;;;;5282400;28;20036;-68
2023/05/08 09:02:41;;;;;;;19.58;18.08;;;;;;;;;;5281434;28;20468;-68
2023/05/08 09:05:13;;;;;;;20.97;19.23;;;;;;;;;;5281383;28;20032;-68
2023/05/08 09:07:44;;;;;;;21.60;19.88;;;;;;;;;;5281620;28;20255;-69
2023/05/08 09:10:15;;;;;;;22.02;20.13;;;;;;;;;;5279963;28;20030;-68
2023/05/08 09:12:47;;;;;;;22.73;20.52;;;;;;;;;;5261790;28;20024;-69
2023/05/08 09:15:18;;;;;;;25.00;22.60;;;;;;;;;;5259770;28;20029;-68
2023/05/08 09:17:49;;;;;;;26.17;23.77;;;;;;;;;;5278591;28;20024;-68
2023/05/08 09:20:21;;;;;;;26.07;23.63;;;;;;;;;;5279893;28;20471;-68
2023/05/08 09:22:52;;;;;;;27.83;25.33;;;;;;;;;;5280298;28;20270;-68
2023/05/08 09:25:24;;;;;;;26.15;23.95;;;;;;;;;;5280175;28;20024;-68
2023/05/08 09:28:13;;;;;;;28.35;25.63;;;;;;;;;;5279883;28;20020;-68
2023/05/08 09:30:49;;;;;;;25.00;22.90;;;;;;;;;;5280051;28;20024;-68
2023/05/08 09:33:21;;;;;;;28.60;25.90;;;;;;;;;;5279918;28;20609;-69
2023/05/08 09:35:53;;;;;;;28.90;25.88;;;;;;;;;;5281381;28;20031;-72
2023/05/08 09:38:27;;;;;;;31.83;28.52;;;;;;;;;;5281804;28;20464;-69
2023/05/08 09:41:04;;;;;;;32.60;29.50;;;;;;;;;;5280258;28;20028;-69
2023/05/08 09:43:36;;;;;;;33.60;30.30;;;;;;;;;;5281187;28;20070;-68
2023/05/08 09:46:21;;;;;;;33.13;30.10;;;;;;;;;;5280598;28;20414;-68
2023/05/08 09:48:53;;;;;;;34.67;31.20;;;;;;;;;;5280742;28;20052;-68
2023/05/08 09:51:25;;;;;;;37.38;33.58;;;;;;;;;;5281791;28;20028;-67
2023/05/08 09:53:57;;;;;;;35.30;31.80;;;;;;;;;;5280344;28;20086;-69
2023/05/08 09:56:35;;;;;;;36.47;32.97;;;;;;;;;;5281225;28;20518;-69
2023/05/08 09:59:26;;;;;;;37.30;33.63;;;;;;;;;;5280876;28;20025;-69
2023/05/08 10:01:57;;;;;;;36.65;33.03;;;;;;;;;;5280135;28;20270;-69
2023/05/08 10:04:32;;;;;;;36.47;32.75;;;;;;;;;;5281531;28;20336;-69
2023/05/08 10:07:03;;;;;;;36.80;33.10;;;;;;;;;;5280410;28;20020;-69
2023/05/08 10:09:34;;;;;;;38.78;34.90;;;;;;;;;;5280864;28;20031;-69
2023/05/08 10:12:06;;;;;;;38.92;33.65;;;;;;;;;;5283041;28;20013;-69
2023/05/08 10:14:37;;;;;;;38.03;34.22;;;;;;;;;;5282017;28;20040;-70
2023/05/08 10:17:08;;;;;;;39.07;35.20;;;;;;;;;;5283181;28;20012;-69
2023/05/08 10:19:43;;;;;;;38.25;34.38;;;;;;;;;;5282429;28;20267;-69
2023/05/08 10:22:14;;;;;;;38.70;34.90;;;;;;;;;;5282102;28;20523;-69
2023/05/08 10:24:47;;;;;;;38.67;34.75;;;;;;;;;;5283135;28;20112;-70
2023/05/08 10:27:34;;;;;;;37.65;33.83;;;;;;;;;;5285325;28;20533;-69
2023/05/08 10:30:06;;;;;;;41.13;36.72;;;;;;;;;;5283915;28;20027;-69
2023/05/08 10:32:41;;;;;;;39.80;35.58;;;;;;;;;;5284581;28;20025;-69
2023/05/08 10:35:13;;;;;;;40.67;36.60;;;;;;;;;;5284569;28;20062;-69
2023/05/08 10:37:44;;;;;;;38.22;34.33;;;;;;;;;;5284536;28;20017;-69
2023/05/08 10:40:17;;;;;;;41.05;35.00;;;;;;;;;;5284840;28;20016;-69
2023/05/08 10:42:49;;;;;;;39.70;35.55;;;;;;;;;;5283349;28;20017;-69
2023/05/08 10:45:20;;;;;;;40.63;36.45;;;;;;;;;;5285144;28;20110;-69
2023/05/08 10:48:09;;;;;;;38.72;34.78;;;;;;;;;;5284330;28;20024;-69
2023/05/08 10:51:00;;;;;;;39.15;34.88;;;;;;;;;;5283559;28;20475;-69
2023/05/08 10:53:47;;;;;;;42.90;38.45;;;;;;;;;;5284370;28;20039;-69
2023/05/08 10:56:25;;;;;;;43.10;38.65;;;;;;;;;;5283649;28;20040;-69
2023/05/08 10:58:56;;;;;;;43.05;38.47;;;;;;;;;;5284037;28;20029;-69
2023/05/08 11:01:27;;;;;;;44.22;39.55;;;;;;;;;;5284465;28;20039;-70
2023/05/08 11:03:59;;;;;;;40.75;36.42;;;;;;;;;;5283372;28;20103;-69
2023/05/08 11:06:51;;;;;;;42.17;37.50;;;;;;;;;;5284207;28;20021;-69
2023/05/08 11:09:26;;;;;;;42.22;37.53;;;;;;;;;;5284580;28;20032;-69
2023/05/08 11:12:03;;;;;;;42.05;37.72;;;;;;;;;;5282914;28;20327;-69
2023/05/08 11:14:36;;;;;;;41.67;37.03;;;;;;;;;;5284100;28;20040;-69
2023/05/08 11:17:08;;;;;;;39.70;35.72;;;;;;;;;;5283525;28;20138;-69
2023/05/08 11:19:53;;;;;;;40.95;36.55;;;;;;;;;;5283678;28;20024;-69
2023/05/08 11:22:32;;;;;;;41.42;37.17;;;;;;;;;;5282849;28;20486;-69
2023/05/08 11:25:05;;;;;;;40.97;36.33;;;;;;;;;;5283279;28;20100;-69
2023/05/08 11:27:48;;;;;;;39.47;34.10;;;;;;;;;;5283700;28;20023;-70
2023/05/08 11:30:25;;;;;;;38.03;34.03;;;;;;;;;;5283829;28;20024;-69
2023/05/08 11:33:02;;;;;;;39.13;35.00;;;;;;;;;;5282458;28;20028;-69
2023/05/08 11:35:40;;;;;;;38.33;34.50;;;;;;;;;;5283951;28;20460;-69
2023/05/08 11:38:20;;;;;;;38.92;34.83;;;;;;;;;;5283112;28;20363;-69
2023/05/08 11:40:54;;;;;;;36.80;32.95;;;;;;;;;;5283220;28;20471;-69
2023/05/08 11:43:30;;;;;;;37.83;33.83;;;;;;;;;;5283641;28;20024;-69
2023/05/08 11:46:03;;;;;;;37.05;33.35;;;;;;;;;;5282765;28;20075;-69
2023/05/08 11:48:34;;;;;;;36.00;32.30;;;;;;;;;;5283501;28;20016;-68
2023/05/08 11:51:05;;;;;;;36.92;33.20;;;;;;;;;;5283291;28;20055;-69
2023/05/08 11:53:37;;;;;;;35.50;31.73;;;;;;;;;;5282323;28;20032;-69
2023/05/08 11:56:08;;;;;;;35.08;31.45;;;;;;;;;;5282938;28;20262;-69
2023/05/08 11:58:39;;;;;;;31.98;28.63;;;;;;;;;;5283133;28;20021;-69
2023/05/08 12:01:15;;;;;;;30.60;27.40;;;;;;;;;;5282744;28;20013;-69
2023/05/08 12:03:46;;;;;;;29.70;26.67;;;;;;;;;;5282900;28;20020;-69
2023/05/08 12:06:17;;;;;;;29.70;26.80;;;;;;;;;;5282443;28;20024;-70
2023/05/08 12:08:49;;;;;;;28.97;26.20;;;;;;;;;;5282583;28;20073;-70
2023/05/08 12:11:23;;;;;;;25.93;23.40;;;;;;;;;;5283205;28;20722;-70
2023/05/08 12:13:54;;;;;;;27.48;24.63;;;;;;;;;;5281660;28;20299;-70
2023/05/08 12:16:26;;;;;;;25.27;22.67;;;;;;;;;;5283017;28;20013;-70
2023/05/08 12:18:57;;;;;;;26.30;23.60;;;;;;;;;;5282637;28;20198;-70
2023/05/08 12:21:28;;;;;;;23.13;20.93;;;;;;;;;;5282322;28;20012;-70
2023/05/08 12:23:59;;;;;;;23.08;20.67;;;;;;;;;;5282267;28;20610;-70
2023/05/08 12:26:33;;;;;;;21.23;19.10;;;;;;;;;;5282675;28;20467;-70
2023/05/08 12:29:06;;;;;;;20.98;18.88;;;;;;;;;;5281684;28;20270;-70
2023/05/08 12:31:37;;;;;;;19.65;17.65;;;;;;;;;;5282399;28;20040;-70
2023/05/08 12:34:08;;;;;;;16.03;14.43;;;;;;;;;;5282313;28;20105;-70
2023/05/08 12:36:40;;;;;;;14.48;12.93;;;;;;;;;;5281316;28;20259;-70
2023/05/08 12:39:15;;;;;;;14.68;13.18;;;;;;;;;;5282593;28;20074;-69
2023/05/08 12:41:47;;;;;;;15.48;13.88;;;;;;;;;;5281049;28;20017;-70
2023/05/08 12:44:20;;;;;;;14.38;12.65;;;;;;;;;;5282481;28;20405;-69
2023/05/08 12:46:53;;;;;;;14.45;13.05;;;;;;;;;;5282060;28;20044;-70
2023/05/08 12:49:30;;;;;;;15.50;13.90;;;;;;;;;;5281775;28;20520;-70
2023/05/08 12:52:01;;;;;;;13.10;11.80;;;;;;;;;;5281911;28;20078;-69
2023/05/08 12:54:33;;;;;;;12.40;11.20;;;;;;;;;;5281898;28;20074;-70
2023/05/08 12:57:08;;;;;;;16.75;12.55;;;;;;;;;;5281012;28;20290;-69
2023/05/08 12:59:40;;;;;;;16.13;14.30;;;;;;;;;;5281499;28;20020;-70
2023/05/08 13:02:20;;;;;;;22.55;14.15;;;;;;;;;;5282232;28;20312;-70
2023/05/08 13:04:56;;;;;;;15.35;13.73;;;;;;;;;;5281012;28;20025;-70
2023/05/08 13:07:31;;;;;;;17.33;14.88;;;;;;;;;;5282209;28;20461;-70
2023/05/08 13:10:03;;;;;;;18.17;14.73;;;;;;;;;;5281221;28;20020;-70
2023/05/08 13:12:34;;;;;;;16.00;13.60;;;;;;;;;;5281714;28;20114;-70
2023/05/08 13:15:06;;;;;;;22.27;16.85;;;;;;;;;;5281696;28;20044;-69
2023/05/08 13:17:37;;;;;;;22.23;17.60;;;;;;;;;;5280930;28;20013;-70
2023/05/08 13:20:08;;;;;;;19.55;17.40;;;;;;;;;;5282083;28;20031;-70
2023/05/08 13:22:40;;;;;;;20.52;18.42;;;;;;;;;;5281255;28;20024;-70
2023/05/08 13:25:11;;;;;;;21.50;18.30;;;;;;;;;;5281288;28;20414;-70
2023/05/08 13:27:42;;;;;;;21.90;19.00;;;;;;;;;;5281306;28;20039;-70
2023/05/08 13:30:14;;;;;;;21.30;19.00;;;;;;;;;;5282011;28;20012;-70
2023/05/08 13:32:45;;;;;;;21.27;18.75;;;;;;;;;;5280610;28;20028;-70
2023/05/08 13:35:16;;;;;;;26.25;20.65;;;;;;;;;;5281901;28;20054;-70
2023/05/08 13:37:48;;;;;;;22.80;20.15;;;;;;;;;;5280375;28;20023;-70
2023/05/08 13:40:19;;;;;;;25.42;20.77;;;;;;;;;;5282005;28;20012;-69
2023/05/08 13:42:51;;;;;;;25.08;20.38;;;;;;;;;;5280986;28;20016;-70
2023/05/08 13:45:22;;;;;;;25.77;21.20;;;;;;;;;;5283308;28;20044;-70
2023/05/08 13:47:53;;;;;;;23.83;20.17;;;;;;;;;;5285624;28;20112;-70
2023/05/08 13:50:24;;;;;;;24.67;20.67;;;;;;;;;;5285979;28;20020;-70
2023/05/08 13:52:56;;;;;;;28.00;21.70;;;;;;;;;;5284875;28;20753;-70
2023/05/08 13:55:27;;;;;;;21.53;19.13;;;;;;;;;;5285930;28;20031;-70
2023/05/08 13:57:58;;;;;;;24.50;20.40;;;;;;;;;;5285190;28;20680;-70
2023/05/08 14:00:29;;;;;;;24.75;21.25;;;;;;;;;;5284648;28;20316;-70
2023/05/08 14:03:00;;;;;;;25.73;20.60;;;;;;;;;;5285308;28;20467;-70
2023/05/08 14:05:32;;;;;;;29.00;23.40;;;;;;;;;;5285729;28;20353;-70
2023/05/08 14:08:04;;;;;;;28.33;21.48;;;;;;;;;;5284783;28;20271;-70
2023/05/08 14:10:35;;;;;;;29.57;21.57;;;;;;;;;;5285334;28;20021;-70
2023/05/08 14:13:06;;;;;;;26.73;20.53;;;;;;;;;;5284355;28;20302;-70
2023/05/08 14:15:39;;;;;;;30.45;23.98;;;;;;;;;;5285188;28;20028;-70
2023/05/08 14:18:10;;;;;;;31.73;25.73;;;;;;;;;;5285658;28;20097;-70
2023/05/08 14:20:41;;;;;;;29.97;23.73;;;;;;;;;;5284035;28;20012;-70
2023/05/08 14:23:12;;;;;;;30.43;24.33;;;;;;;;;;5285353;28;20807;-70
2023/05/08 14:25:43;;;;;;;26.75;21.35;;;;;;;;;;5284848;28;20427;-70
2023/05/08 14:28:15;;;;;;;30.38;23.52;;;;;;;;;;5284812;28;20062;-70
2023/05/08 14:30:46;;;;;;;29.53;23.53;;;;;;;;;;5284873;28;20012;-70
2023/05/08 14:33:17;;;;;;;31.25;23.33;;;;;;;;;;5285174;28;20315;-70
2023/05/08 14:35:48;;;;;;;25.23;21.70;;;;;;;;;;5283701;28;20034;-70
2023/05/08 14:38:19;;;;;;;29.67;23.90;;;;;;;;;;5285030;28;20267;-70
2023/05/08 14:40:53;;;;;;;30.57;23.10;;;;;;;;;;5284697;28;20028;-70
2023/05/08 14:43:24;;;;;;;27.52;24.15;;;;;;;;;;5284289;28;20266;-70
2023/05/08 14:45:55;;;;;;;29.38;23.42;;;;;;;;;;5284280;28;20032;-70
2023/05/08 14:48:26;;;;;;;28.15;22.40;;;;;;;;;;5284186;28;20029;-70
2023/05/08 14:50:57;;;;;;;27.52;21.10;;;;;;;;;;5284005;28;20109;-70